createdAt,value
2019-05-17T00:00:37.124Z,23.40
2019-05-17T00:03:08.918Z,28.03
2019-05-17T00:05:41.373Z,23.47
2019-05-17T00:08:16.336Z,27.17
2019-05-17T00:10:47.755Z,26.93
2019-05-17T00:13:22.324Z,22.67
2019-05-17T00:15:56.587Z,25.03
2019-05-17T00:18:29.113Z,25.27
2019-05-17T00:21:01.489Z,25.00
2019-05-17T00:23:33.222Z,26.17
2019-05-17T00:26:07.120Z,26.87
2019-05-17T00:28:38.934Z,21.30
2019-05-17T00:31:11.477Z,24.97
2019-05-17T00:33:42.923Z,27.67
2019-05-17T00:36:14.658Z,25.83
2019-05-17T00:38:51.267Z,23.07
2019-05-17T00:41:19.240Z,27.17
2019-05-17T00:43:52.511Z,26.87
2019-05-17T00:46:26.638Z,22.37
2019-05-17T00:48:59.730Z,26.90
2019-05-17T00:51:36.712Z,27.30
2019-05-17T00:54:08.829Z,26.57
2019-05-17T00:56:41.334Z,25.63
2019-05-17T00:59:17.064Z,25.37
2019-05-17T01:01:49.667Z,22.73
2019-05-17T01:04:21.403Z,27.53
2019-05-17T01:06:53.262Z,27.97
2019-05-17T01:09:27.310Z,23.73
2019-05-17T01:12:01.411Z,28.43
2019-05-17T01:14:34.177Z,29.00
2019-05-17T01:17:07.235Z,25.40
2019-05-17T01:19:39.208Z,29.03
2019-05-17T01:22:10.771Z,31.23
2019-05-17T01:24:43.426Z,32.03
2019-05-17T01:27:17.246Z,23.43
2019-05-17T01:29:48.326Z,29.27
2019-05-17T01:32:21.122Z,27.00
2019-05-17T01:34:56.303Z,30.37
2019-05-17T01:37:28.422Z,33.93
2019-05-17T01:40:01.158Z,27.30
2019-05-17T01:42:33.818Z,33.40
2019-05-17T01:45:10.221Z,27.13
2019-05-17T01:47:47.390Z,33.10
2019-05-17T01:50:17.476Z,27.00
2019-05-17T01:52:48.321Z,34.37
2019-05-17T01:55:21.089Z,27.13
2019-05-17T01:57:56.324Z,34.53
2019-05-17T02:00:27.551Z,34.13
2019-05-17T02:03:00.458Z,27.93
2019-05-17T02:05:31.150Z,34.57
2019-05-17T02:08:02.937Z,38.37
2019-05-17T02:10:37.520Z,27.13
2019-05-17T02:13:11.851Z,32.73
2019-05-17T02:15:43.304Z,27.50
2019-05-17T02:18:17.381Z,34.50
2019-05-17T02:20:49.813Z,29.40
2019-05-17T02:23:21.294Z,35.27
2019-05-17T02:25:53.889Z,35.87
2019-05-17T02:28:28.341Z,28.13
2019-05-17T02:31:03.318Z,36.07
2019-05-17T02:33:35.939Z,30.90
2019-05-17T02:36:07.763Z,36.10
2019-05-17T02:38:43.412Z,29.53
2019-05-17T02:41:14.874Z,36.13
2019-05-17T02:43:47.638Z,35.40
2019-05-17T02:46:23.065Z,29.33
2019-05-17T02:48:54.836Z,36.37
2019-05-17T02:51:26.852Z,37.13
2019-05-17T02:53:59.767Z,30.40
2019-05-17T02:56:32.759Z,37.50
2019-05-17T02:59:04.002Z,40.90
2019-05-17T03:01:35.883Z,32.40
2019-05-17T03:04:08.619Z,38.07
2019-05-17T03:06:43.645Z,37.23
2019-05-17T03:09:14.930Z,30.10
2019-05-17T03:11:48.300Z,38.80
2019-05-17T03:14:22.790Z,32.73
2019-05-17T03:16:53.912Z,39.37
2019-05-17T03:19:25.358Z,31.87
2019-05-17T03:22:04.189Z,41.37
2019-05-17T03:24:35.783Z,33.73
2019-05-17T03:27:13.086Z,39.27
2019-05-17T03:29:42.599Z,39.13
2019-05-17T03:32:16.996Z,34.33
2019-05-17T03:34:56.123Z,41.20
2019-05-17T03:37:30.260Z,41.23
2019-05-17T03:39:56.680Z,32.77
2019-05-17T03:42:29.304Z,41.30
2019-05-17T03:45:02.917Z,33.07
2019-05-17T03:47:35.626Z,41.87
2019-05-17T03:50:08.154Z,41.73
2019-05-17T03:52:43.800Z,39.90
2019-05-17T03:55:14.401Z,38.17
2019-05-17T03:57:46.971Z,41.43
2019-05-17T04:00:22.966Z,39.83
2019-05-17T04:02:53.659Z,40.17
2019-05-17T04:05:25.682Z,33.30
2019-05-17T04:07:58.439Z,41.03
2019-05-17T04:10:33.375Z,32.30
2019-05-17T04:13:05.792Z,37.83
2019-05-17T04:15:39.471Z,39.50
2019-05-17T04:18:13.097Z,30.93
2019-05-17T04:20:44.984Z,39.77
2019-05-17T04:23:19.372Z,38.80
2019-05-17T04:25:53.896Z,38.17
2019-05-17T04:28:25.771Z,38.33
2019-05-17T04:30:58.172Z,31.17
2019-05-17T04:33:33.780Z,38.93
2019-05-17T04:36:04.514Z,35.30
2019-05-17T04:38:36.083Z,30.80
2019-05-17T04:41:07.323Z,36.20
2019-05-17T04:43:38.307Z,37.17
2019-05-17T04:46:09.191Z,30.17
2019-05-17T04:48:43.895Z,34.57
2019-05-17T04:51:18.147Z,33.57
2019-05-17T04:53:53.003Z,37.53
2019-05-17T04:56:24.425Z,30.50
2019-05-17T04:58:56.884Z,33.80
2019-05-17T05:01:32.770Z,35.27
2019-05-17T05:04:04.049Z,36.80
2019-05-17T05:06:35.508Z,32.33
2019-05-17T05:09:07.270Z,34.90
2019-05-17T05:11:53.447Z,32.83
2019-05-17T05:14:12.935Z,32.77
2019-05-17T05:16:44.261Z,26.03
2019-05-17T05:19:15.904Z,31.93
2019-05-17T05:21:52.026Z,30.13
2019-05-17T05:24:23.386Z,30.87
2019-05-17T05:26:54.817Z,26.23
2019-05-17T05:29:26.202Z,32.80
2019-05-17T05:31:57.935Z,28.90
2019-05-17T05:34:32.092Z,26.30
2019-05-17T05:37:03.865Z,31.50
2019-05-17T05:39:35.422Z,24.93
2019-05-17T05:42:10.682Z,30.00
2019-05-17T05:44:41.605Z,23.27
2019-05-17T05:47:13.151Z,27.27
2019-05-17T05:49:45.515Z,28.20
2019-05-17T05:52:18.142Z,28.27
2019-05-17T05:54:52.045Z,26.33
2019-05-17T05:57:26.770Z,23.30
2019-05-17T06:00:02.193Z,26.43
2019-05-17T06:02:34.068Z,21.23
2019-05-17T06:05:08.715Z,27.97
2019-05-17T06:07:41.800Z,24.97
2019-05-17T06:10:15.277Z,22.63
2019-05-17T06:12:46.860Z,24.73
2019-05-17T06:15:21.796Z,21.37
2019-05-17T06:17:52.207Z,22.60
2019-05-17T06:20:26.427Z,23.77
2019-05-17T06:22:59.344Z,23.63
2019-05-17T06:25:34.171Z,22.97
2019-05-17T06:28:06.225Z,21.13
2019-05-17T06:30:38.079Z,17.40
2019-05-17T06:33:16.104Z,22.00
2019-05-17T06:35:44.610Z,21.50
2019-05-17T06:38:16.897Z,20.27
2019-05-17T06:40:49.287Z,19.03
2019-05-17T06:43:21.668Z,19.20
2019-05-17T06:45:55.725Z,15.60
2019-05-17T06:48:28.575Z,15.47
2019-05-17T06:51:03.689Z,18.37
2019-05-17T06:53:39.511Z,16.47
2019-05-17T06:56:12.811Z,14.73
2019-05-17T06:58:44.412Z,15.37
2019-05-17T07:01:19.670Z,15.87
2019-05-17T07:03:52.417Z,17.33
2019-05-17T07:06:25.418Z,13.30
2019-05-17T07:09:00.845Z,18.10
2019-05-17T07:11:33.994Z,13.23
2019-05-17T07:14:06.380Z,15.37
2019-05-17T07:16:41.574Z,15.17
2019-05-17T07:19:15.235Z,15.13
2019-05-17T07:21:49.462Z,16.53
2019-05-17T07:24:23.562Z,17.07
2019-05-17T07:26:55.011Z,17.80
2019-05-17T07:29:27.378Z,13.13
2019-05-17T07:32:00.321Z,13.53
2019-05-17T07:34:33.870Z,15.10
2019-05-17T07:37:06.778Z,15.53
2019-05-17T07:39:42.139Z,14.73
2019-05-17T07:42:15.052Z,14.70
2019-05-17T07:44:49.547Z,13.20
2019-05-17T07:47:20.998Z,14.27
2019-05-17T07:49:54.684Z,13.17
2019-05-17T07:52:29.809Z,12.27
2019-05-17T07:55:02.640Z,13.17
2019-05-17T07:57:36.331Z,13.23
2019-05-17T08:00:11.210Z,12.37
2019-05-17T08:02:42.771Z,12.73
2019-05-17T08:05:15.181Z,13.67
2019-05-17T08:07:49.868Z,14.03
2019-05-17T08:10:21.273Z,14.30
2019-05-17T08:12:54.298Z,12.50
2019-05-17T08:15:30.438Z,12.67
2019-05-17T08:18:03.340Z,12.80
2019-05-17T08:20:35.747Z,12.27
2019-05-17T08:23:10.826Z,9.63
2019-05-17T08:25:52.811Z,9.87
2019-05-17T08:28:18.801Z,9.30
2019-05-17T08:30:50.535Z,12.00
2019-05-17T08:33:23.063Z,10.90
2019-05-17T08:35:55.455Z,11.17
2019-05-17T08:38:27.746Z,10.50
2019-05-17T08:41:00.768Z,8.50
2019-05-17T08:43:42.615Z,9.53
2019-05-17T08:46:06.334Z,7.93
2019-05-17T08:48:40.162Z,8.27
2019-05-17T08:51:14.489Z,10.87
2019-05-17T08:53:49.159Z,7.80
2019-05-17T08:56:21.304Z,8.53
2019-05-17T08:58:52.924Z,8.30
2019-05-17T09:01:25.278Z,10.00
2019-05-17T09:03:56.722Z,9.73
2019-05-17T09:06:29.407Z,7.77
2019-05-17T09:09:01.813Z,8.50
2019-05-17T09:11:34.540Z,7.60
2019-05-17T09:14:10.261Z,7.93
2019-05-17T09:16:42.167Z,9.37
2019-05-17T09:19:14.755Z,7.77
2019-05-17T09:21:46.199Z,8.33
2019-05-17T09:24:19.486Z,7.93
2019-05-17T09:26:51.374Z,7.37
2019-05-17T09:29:24.056Z,7.50
2019-05-17T09:31:56.583Z,7.13
2019-05-17T09:34:29.989Z,7.17
2019-05-17T09:37:04.519Z,7.83
2019-05-17T09:39:37.210Z,7.83
2019-05-17T09:42:10.441Z,9.17
2019-05-17T09:44:42.847Z,6.93
2019-05-17T09:47:14.771Z,8.07
2019-05-17T09:49:46.276Z,7.23
2019-05-17T09:52:20.618Z,7.53
2019-05-17T09:54:53.998Z,7.73
2019-05-17T09:57:26.355Z,8.73
2019-05-17T10:00:02.179Z,9.00
2019-05-17T10:02:33.500Z,8.90
2019-05-17T10:05:10.594Z,6.30
2019-05-17T10:07:43.634Z,7.13
2019-05-17T10:10:16.643Z,6.37
2019-05-17T10:12:49.613Z,8.70
2019-05-17T10:15:22.343Z,7.77
2019-05-17T10:17:54.086Z,6.77
2019-05-17T10:20:29.140Z,7.77
2019-05-17T10:23:01.729Z,6.90
2019-05-17T10:25:34.935Z,5.37
2019-05-17T10:28:09.795Z,7.57
2019-05-17T10:30:40.562Z,6.27
2019-05-17T10:33:11.999Z,6.13
2019-05-17T10:35:44.531Z,5.93
2019-05-17T10:38:19.481Z,5.80
2019-05-17T10:40:51.379Z,7.00
2019-05-17T10:43:26.611Z,5.17
2019-05-17T10:45:59.838Z,6.20
2019-05-17T10:48:32.303Z,5.97
2019-05-17T10:51:04.190Z,6.97
2019-05-17T10:53:36.673Z,5.60
2019-05-17T10:56:10.020Z,6.43
2019-05-17T10:58:41.746Z,7.53
2019-05-17T11:01:14.278Z,6.20
2019-05-17T11:03:46.635Z,6.50
2019-05-17T11:06:19.756Z,5.70
2019-05-17T11:08:51.634Z,6.40
2019-05-17T11:11:25.676Z,6.67
2019-05-17T11:13:57.152Z,5.93
2019-05-17T11:16:28.891Z,6.43
2019-05-17T11:19:00.466Z,7.20
2019-05-17T11:21:31.790Z,7.07
2019-05-17T11:24:04.611Z,6.63
2019-05-17T11:26:36.299Z,5.77
2019-05-17T11:29:08.903Z,5.60
2019-05-17T11:31:42.423Z,6.30
2019-05-17T11:34:14.300Z,5.17
2019-05-17T11:36:48.139Z,5.07
2019-05-17T11:39:20.960Z,11.33
2019-05-17T11:41:53.358Z,6.03
2019-05-17T11:44:25.027Z,5.20
2019-05-17T11:46:56.546Z,5.33
2019-05-17T11:49:27.978Z,4.90
2019-05-17T11:52:00.071Z,5.63
2019-05-17T11:54:31.358Z,7.07
2019-05-17T11:57:03.170Z,5.20
2019-05-17T11:59:37.371Z,7.33
2019-05-17T12:02:10.261Z,6.37
2019-05-17T12:04:43.087Z,6.97
2019-05-17T12:07:14.949Z,7.60
2019-05-17T12:09:47.722Z,5.43
2019-05-17T12:12:20.165Z,6.53
2019-05-17T12:14:52.780Z,5.27
2019-05-17T12:17:25.975Z,5.07
2019-05-17T12:19:58.498Z,5.57
2019-05-17T12:22:30.731Z,5.57
2019-05-17T12:25:04.126Z,5.80
2019-05-17T12:27:36.773Z,6.33
2019-05-17T12:30:10.581Z,7.53
2019-05-17T12:32:42.407Z,5.77
2019-05-17T12:35:14.175Z,5.97
2019-05-17T12:37:46.090Z,5.83
2019-05-17T12:40:19.112Z,9.53
2019-05-17T12:42:52.195Z,5.33
2019-05-17T12:45:24.674Z,5.30
2019-05-17T12:47:56.404Z,6.07
2019-05-17T12:50:28.910Z,6.57
2019-05-17T12:53:01.123Z,6.00
2019-05-17T12:55:33.488Z,7.17
2019-05-17T12:58:06.310Z,6.17
2019-05-17T13:00:38.160Z,7.07
2019-05-17T13:03:10.053Z,6.90
2019-05-17T13:05:44.817Z,6.10
2019-05-17T13:08:19.024Z,8.90
2019-05-17T13:10:53.379Z,6.53
2019-05-17T13:13:26.092Z,6.93
2019-05-17T13:15:59.355Z,6.23
2019-05-17T13:18:31.982Z,6.77
2019-05-17T13:21:05.028Z,7.20
2019-05-17T13:23:36.205Z,6.27
2019-05-17T13:26:07.791Z,7.67
2019-05-17T13:28:40.539Z,6.70
2019-05-17T13:31:12.420Z,6.97
2019-05-17T13:33:44.242Z,7.13
2019-05-17T13:36:16.301Z,6.10
2019-05-17T13:38:49.020Z,8.03
2019-05-17T13:41:20.877Z,7.00
2019-05-17T13:43:52.296Z,7.50
2019-05-17T13:46:32.850Z,10.63
2019-05-17T13:48:56.806Z,8.03
2019-05-17T13:51:27.749Z,7.73
2019-05-17T13:54:00.122Z,8.10
2019-05-17T13:56:34.059Z,8.83
2019-05-17T13:59:05.980Z,10.13
2019-05-17T14:01:38.358Z,9.97
2019-05-17T14:04:10.119Z,9.97
2019-05-17T14:06:44.338Z,6.83
2019-05-17T14:09:17.000Z,11.00
2019-05-17T14:11:48.948Z,7.47
2019-05-17T14:14:21.885Z,8.77
2019-05-17T14:16:56.459Z,7.93
2019-05-17T14:19:30.125Z,8.37
2019-05-17T14:22:04.165Z,10.57
2019-05-17T14:24:37.069Z,11.73
2019-05-17T14:27:09.802Z,7.87
2019-05-17T14:29:42.559Z,9.93
2019-05-17T14:32:15.793Z,10.37
2019-05-17T14:34:49.427Z,9.43
2019-05-17T14:37:21.902Z,8.37
2019-05-17T14:39:52.937Z,9.43
2019-05-17T14:42:24.002Z,7.53
2019-05-17T14:44:54.750Z,10.47
2019-05-17T14:47:27.122Z,9.87
2019-05-17T14:49:57.967Z,7.80
2019-05-17T14:52:30.253Z,9.87
2019-05-17T14:55:03.620Z,9.13
2019-05-17T14:57:35.934Z,8.97
2019-05-17T15:00:08.560Z,9.80
2019-05-17T15:02:43.242Z,9.43
2019-05-17T15:05:14.297Z,9.53
2019-05-17T15:07:46.023Z,10.10
2019-05-17T15:10:19.795Z,11.17
2019-05-17T15:12:52.488Z,9.67
2019-05-17T15:15:27.194Z,9.53
2019-05-17T15:17:57.355Z,9.60
2019-05-17T15:20:29.270Z,9.30
2019-05-17T15:23:01.737Z,12.37
2019-05-17T15:25:33.938Z,10.27
2019-05-17T15:28:06.137Z,12.17
2019-05-17T15:30:38.480Z,10.83
2019-05-17T15:33:09.770Z,10.60
2019-05-17T15:35:43.447Z,11.80
2019-05-17T15:38:16.175Z,11.80
2019-05-17T15:40:50.265Z,12.47
2019-05-17T15:43:24.635Z,13.77
2019-05-17T15:45:56.383Z,12.20
2019-05-17T15:48:28.686Z,14.50
2019-05-17T15:51:01.189Z,15.37
2019-05-17T15:53:32.899Z,13.17
2019-05-17T15:56:05.557Z,14.53
2019-05-17T15:58:37.260Z,14.90
2019-05-17T16:01:10.282Z,13.70
2019-05-17T16:03:43.885Z,14.33
2019-05-17T16:06:18.145Z,17.40
2019-05-17T16:08:49.879Z,14.00
2019-05-17T16:11:21.740Z,19.00
2019-05-17T16:13:54.173Z,14.77
2019-05-17T16:16:26.526Z,18.77
2019-05-17T16:18:58.933Z,17.87
2019-05-17T16:21:32.259Z,19.47
2019-05-17T16:24:04.959Z,17.57
2019-05-17T16:26:36.828Z,21.37
2019-05-17T16:29:09.243Z,18.00
2019-05-17T16:31:43.003Z,17.43
2019-05-17T16:34:14.943Z,15.57
2019-05-17T16:36:47.410Z,22.20
2019-05-17T16:39:21.171Z,20.23
2019-05-17T16:41:57.227Z,14.00
2019-05-17T16:44:30.779Z,20.10
2019-05-17T16:47:04.006Z,22.17
2019-05-17T16:49:36.285Z,18.90
2019-05-17T16:52:10.350Z,22.03
2019-05-17T16:54:43.003Z,17.83
2019-05-17T16:57:17.602Z,19.13
2019-05-17T16:59:49.470Z,20.17
2019-05-17T17:02:22.302Z,17.83
2019-05-17T17:04:54.142Z,20.30
2019-05-17T17:07:26.952Z,18.97
2019-05-17T17:09:59.449Z,20.27
2019-05-17T17:12:33.126Z,19.57
2019-05-17T17:15:04.717Z,20.53
2019-05-17T17:17:36.521Z,18.13
2019-05-17T17:20:08.190Z,18.63
2019-05-17T17:22:39.974Z,19.30
2019-05-17T17:25:13.050Z,16.97
2019-05-17T17:27:44.642Z,19.60
2019-05-17T17:30:17.219Z,21.13
2019-05-17T17:32:51.835Z,17.83
2019-05-17T17:35:24.403Z,24.93
2019-05-17T17:37:57.089Z,19.83
2019-05-17T17:40:29.594Z,21.13
2019-05-17T17:43:00.562Z,18.33
2019-05-17T17:45:31.420Z,21.03
2019-05-17T17:48:04.464Z,17.10
2019-05-17T17:50:37.213Z,19.57
2019-05-17T17:53:09.272Z,20.30
2019-05-17T17:55:41.114Z,18.47
2019-05-17T17:58:14.234Z,19.43
2019-05-17T18:00:46.148Z,21.77
2019-05-17T18:03:18.078Z,21.53
2019-05-17T18:05:49.773Z,18.60
2019-05-17T18:08:21.486Z,17.40
2019-05-17T18:10:54.295Z,20.97
2019-05-17T18:13:27.092Z,20.43
2019-05-17T18:15:59.634Z,19.67
2019-05-17T18:18:31.306Z,19.63
2019-05-17T18:21:03.242Z,20.93
2019-05-17T18:23:35.113Z,18.87
2019-05-17T18:26:07.747Z,16.90
2019-05-17T18:28:38.962Z,21.13
2019-05-17T18:31:10.507Z,24.90
2019-05-17T18:33:41.460Z,21.57
2019-05-17T18:36:16.039Z,19.97
2019-05-17T18:38:52.206Z,18.60
2019-05-17T18:41:24.774Z,20.43
2019-05-17T18:43:56.522Z,20.07
2019-05-17T18:46:30.094Z,19.80
2019-05-17T18:49:04.979Z,21.53
2019-05-17T18:51:37.807Z,18.87
2019-05-17T18:54:11.871Z,21.97
2019-05-17T18:56:45.935Z,20.47
2019-05-17T18:59:17.684Z,21.80
2019-05-17T19:01:50.178Z,16.33
2019-05-17T19:04:23.791Z,21.90
2019-05-17T19:06:56.222Z,23.77
2019-05-17T19:09:31.849Z,22.23
2019-05-17T19:12:04.270Z,22.83
2019-05-17T19:14:42.964Z,19.63
2019-05-17T19:17:12.372Z,19.27
2019-05-17T19:19:45.907Z,23.97
2019-05-17T19:22:21.217Z,25.03
2019-05-17T19:24:54.412Z,20.57
2019-05-17T19:27:26.301Z,23.43
2019-05-17T19:29:58.149Z,24.27
2019-05-17T19:32:31.334Z,22.53
2019-05-17T19:35:04.170Z,24.97
2019-05-17T19:37:36.038Z,22.63
2019-05-17T19:40:09.799Z,24.23
2019-05-17T19:42:42.316Z,18.73
2019-05-17T19:45:15.438Z,23.93
2019-05-17T19:47:48.084Z,23.90
2019-05-17T19:50:20.719Z,27.00
2019-05-17T19:52:53.141Z,28.07
2019-05-17T19:55:24.487Z,25.03
2019-05-17T19:57:56.224Z,27.07
2019-05-17T20:00:29.115Z,25.00
2019-05-17T20:03:01.014Z,24.07
2019-05-17T20:05:36.748Z,21.30
2019-05-17T20:08:09.539Z,19.87
2019-05-17T20:10:41.432Z,23.63
2019-05-17T20:13:13.274Z,26.43
2019-05-17T20:15:45.155Z,25.57
2019-05-17T20:18:16.710Z,23.67
2019-05-17T20:20:49.020Z,19.93
2019-05-17T20:23:21.300Z,23.30
2019-05-17T20:25:52.846Z,25.73
2019-05-17T20:28:24.282Z,22.27
2019-05-17T20:30:58.415Z,22.13
2019-05-17T20:33:29.823Z,23.13
2019-05-17T20:36:02.911Z,18.27
2019-05-17T20:38:35.325Z,21.00
2019-05-17T20:41:07.695Z,21.90
2019-05-17T20:43:39.167Z,20.77
2019-05-17T20:46:11.422Z,18.53
2019-05-17T20:48:42.884Z,18.77
2019-05-17T20:51:20.028Z,20.97
2019-05-17T20:53:52.594Z,23.53
2019-05-17T20:56:33.141Z,21.70
2019-05-17T20:58:58.446Z,24.10
2019-05-17T21:01:30.046Z,26.50
2019-05-17T21:04:01.533Z,21.93
2019-05-17T21:06:35.479Z,19.30
2019-05-17T21:09:09.290Z,16.67
2019-05-17T21:11:41.170Z,14.40
2019-05-17T21:14:13.060Z,16.57
2019-05-17T21:16:45.786Z,16.70
2019-05-17T21:19:18.170Z,17.37
2019-05-17T21:21:49.089Z,16.07
2019-05-17T21:24:21.486Z,14.43
2019-05-17T21:26:56.037Z,14.70
2019-05-17T21:29:29.487Z,12.83
2019-05-17T21:32:01.340Z,14.30
2019-05-17T21:34:34.143Z,13.00
2019-05-17T21:37:06.012Z,14.07
2019-05-17T21:39:37.566Z,12.10
2019-05-17T21:42:09.958Z,14.90
2019-05-17T21:44:41.747Z,12.43
2019-05-17T21:47:14.556Z,14.40
2019-05-17T21:49:47.860Z,15.00
2019-05-17T21:52:20.286Z,14.53
2019-05-17T21:54:50.171Z,13.20
2019-05-17T21:57:22.845Z,14.57
2019-05-17T21:59:53.919Z,14.60
2019-05-17T22:02:25.463Z,16.33
2019-05-17T22:04:57.185Z,14.63
2019-05-17T22:07:31.409Z,14.20
2019-05-17T22:10:04.598Z,16.23
2019-05-17T22:12:37.409Z,13.50
2019-05-17T22:15:08.733Z,14.33
2019-05-17T22:17:41.338Z,12.93
2019-05-17T22:20:13.197Z,13.97
2019-05-17T22:22:45.076Z,14.23
2019-05-17T22:25:17.568Z,15.00
2019-05-17T22:27:49.028Z,15.87
2019-05-17T22:30:20.254Z,13.73
2019-05-17T22:32:51.413Z,11.83
2019-05-17T22:35:24.723Z,14.60
2019-05-17T22:37:57.450Z,13.20
2019-05-17T22:40:29.898Z,13.60
2019-05-17T22:43:04.433Z,14.10
2019-05-17T22:45:37.244Z,13.20
2019-05-17T22:48:09.935Z,14.57
2019-05-17T22:50:41.994Z,16.03
2019-05-17T22:53:14.502Z,15.20
2019-05-17T22:55:45.899Z,16.20
2019-05-17T22:58:18.559Z,15.90
2019-05-17T23:00:50.398Z,14.43
2019-05-17T23:03:21.970Z,19.87
2019-05-17T23:05:55.946Z,18.10
2019-05-17T23:08:29.160Z,13.03
2019-05-17T23:11:01.971Z,15.87
2019-05-17T23:13:34.816Z,15.13
2019-05-17T23:16:07.958Z,15.20
2019-05-17T23:18:40.302Z,13.97
2019-05-17T23:21:11.829Z,16.60
2019-05-17T23:23:44.514Z,17.87
2019-05-17T23:26:18.825Z,17.07
2019-05-17T23:28:51.486Z,15.60
2019-05-17T23:31:23.368Z,19.30
2019-05-17T23:33:57.097Z,19.37
2019-05-17T23:36:30.654Z,16.50
2019-05-17T23:39:03.338Z,19.57
2019-05-17T23:41:38.138Z,20.43
2019-05-17T23:44:10.655Z,14.80
2019-05-17T23:46:43.279Z,19.20
2019-05-17T23:49:16.148Z,15.67
2019-05-17T23:51:48.890Z,18.63
2019-05-17T23:54:21.490Z,16.87
2019-05-17T23:56:54.681Z,13.77
2019-05-17T23:59:26.365Z,15.97
